sensor_id;sensor_type;location;lat;lon;timestamp;pressure;altitude;pressure_sealevel;temperature;humidity
23635;BME280;11994;51.038;16.974;2022-10-03T00:08:07;100072.94;;;12.34;88.39
23635;BME280;11994;51.038;16.974;2022-10-03T00:19:06;100081.83;;;12.30;88.42
23635;BME280;11994;51.038;16.974;2022-10-03T00:27:07;100082.67;;;12.31;88.60
23635;BME280;11994;51.038;16.974;2022-10-03T00:38:20;100083.45;;;12.34;88.50
23635;BME280;11994;51.038;16.974;2022-10-03T00:52:53;100088.80;;;12.31;88.32
23635;BME280;11994;51.038;16.974;2022-10-03T00:59:01;100091.63;;;12.25;88.31
23635;BME280;11994;51.038;16.974;2022-10-03T01:12:56;100090.39;;;12.09;88.19
23635;BME280;11994;51.038;16.974;2022-10-03T01:15:59;100089.19;;;12.07;88.21
23635;BME280;11994;51.038;16.974;2022-10-03T01:25:04;100092.60;;;11.96;88.37
23635;BME280;11994;51.038;16.974;2022-10-03T01:27:07;100088.73;;;11.93;88.41
23635;BME280;11994;51.038;16.974;2022-10-03T01:32:56;100094.39;;;11.93;88.57
23635;BME280;11994;51.038;16.974;2022-10-03T01:35:47;100086.50;;;11.93;88.79
23635;BME280;11994;51.038;16.974;2022-10-03T01:54:55;100103.92;;;11.98;88.76
23635;BME280;11994;51.038;16.974;2022-10-03T01:57:48;100098.11;;;12.01;88.73
23635;BME280;11994;51.038;16.974;2022-10-03T02:00:24;100096.39;;;12.00;88.73
23635;BME280;11994;51.038;16.974;2022-10-03T02:03:20;100105.52;;;12.03;88.69
23635;BME280;11994;51.038;16.974;2022-10-03T02:06:03;100105.56;;;12.02;88.72
23635;BME280;11994;51.038;16.974;2022-10-03T02:17:29;100101.29;;;11.98;88.78
23635;BME280;11994;51.038;16.974;2022-10-03T02:20:24;100103.92;;;11.98;88.91
23635;BME280;11994;51.038;16.974;2022-10-03T02:23:20;100098.63;;;11.99;88.97
23635;BME280;11994;51.038;16.974;2022-10-03T02:32:20;100104.24;;;12.02;88.91
23635;BME280;11994;51.038;16.974;2022-10-03T02:38:22;100112.97;;;12.02;88.93
23635;BME280;11994;51.038;16.974;2022-10-03T02:40:38;100122.61;;;12.03;88.87
23635;BME280;11994;51.038;16.974;2022-10-03T02:43:33;100123.45;;;12.03;88.91
23635;BME280;11994;51.038;16.974;2022-10-03T03:23:12;100140.58;;;12.02;88.67
23635;BME280;11994;51.038;16.974;2022-10-03T03:25:58;100129.11;;;12.04;88.70
23635;BME280;11994;51.038;16.974;2022-10-03T03:28:56;100132.58;;;12.07;88.59
23635;BME280;11994;51.038;16.974;2022-10-03T03:31:35;100130.83;;;12.05;88.54
23635;BME280;11994;51.038;16.974;2022-10-03T03:34:20;100139.63;;;12.04;88.54
23635;BME280;11994;51.038;16.974;2022-10-03T03:37:03;100149.30;;;12.04;88.56
23635;BME280;11994;51.038;16.974;2022-10-03T03:45:36;100144.12;;;12.01;88.61
23635;BME280;11994;51.038;16.974;2022-10-03T03:57:57;100158.92;;;11.91;89.14
23635;BME280;11994;51.038;16.974;2022-10-03T04:01:02;100155.05;;;11.88;89.22
23635;BME280;11994;51.038;16.974;2022-10-03T04:03:42;100157.27;;;11.87;89.32
23635;BME280;11994;51.038;16.974;2022-10-03T04:17:41;100166.66;;;11.81;89.52
23635;BME280;11994;51.038;16.974;2022-10-03T04:20:51;100175.85;;;11.81;89.51
23635;BME280;11994;51.038;16.974;2022-10-03T04:29:29;100166.14;;;11.83;89.57
23635;BME280;11994;51.038;16.974;2022-10-03T04:32:19;100174.14;;;11.80;89.60
23635;BME280;11994;51.038;16.974;2022-10-03T04:38:05;100162.75;;;11.79;89.84
23635;BME280;11994;51.038;16.974;2022-10-03T04:40:46;100165.74;;;11.82;89.90
23635;BME280;11994;51.038;16.974;2022-10-03T04:46:32;100168.34;;;11.83;89.86
23635;BME280;11994;51.038;16.974;2022-10-03T04:49:05;100159.50;;;11.86;89.82
23635;BME280;11994;51.038;16.974;2022-10-03T04:51:49;100165.13;;;11.88;89.71
23635;BME280;11994;51.038;16.974;2022-10-03T04:57:35;100157.20;;;11.90;89.76
23635;BME280;11994;51.038;16.974;2022-10-03T05:00:05;100154.64;;;11.87;89.80
23635;BME280;11994;51.038;16.974;2022-10-03T05:02:54;100151.54;;;11.89;89.84
23635;BME280;11994;51.038;16.974;2022-10-03T05:11:35;100155.81;;;11.91;89.67
23635;BME280;11994;51.038;16.974;2022-10-03T05:14:26;100166.40;;;11.90;89.76
23635;BME280;11994;51.038;16.974;2022-10-03T05:17:09;100154.94;;;11.92;89.78
23635;BME280;11994;51.038;16.974;2022-10-03T05:19:59;100162.75;;;11.93;89.68
23635;BME280;11994;51.038;16.974;2022-10-03T05:34:08;100168.89;;;11.94;89.80
23635;BME280;11994;51.038;16.974;2022-10-03T05:39:33;100167.53;;;11.96;89.67
23635;BME280;11994;51.038;16.974;2022-10-03T05:45:55;100177.69;;;11.93;89.59
23635;BME280;11994;51.038;16.974;2022-10-03T05:48:30;100179.41;;;11.94;89.58
23635;BME280;11994;51.038;16.974;2022-10-03T06:00:33;100182.07;;;11.93;89.70
23635;BME280;11994;51.038;16.974;2022-10-03T06:12:10;100190.42;;;11.78;90.38
23635;BME280;11994;51.038;16.974;2022-10-03T06:15:17;100192.41;;;11.68;90.65
23635;BME280;11994;51.038;16.974;2022-10-03T06:29:16;100206.94;;;11.67;91.93
23635;BME280;11994;51.038;16.974;2022-10-03T06:41:44;100203.57;;;11.62;92.13
23635;BME280;11994;51.038;16.974;2022-10-03T06:44:25;100212.30;;;11.62;92.56
23635;BME280;11994;51.038;16.974;2022-10-03T06:49:55;100213.51;;;11.67;92.71
23635;BME280;11994;51.038;16.974;2022-10-03T07:01:49;100223.03;;;11.85;92.59
23635;BME280;11994;51.038;16.974;2022-10-03T07:10:34;100229.39;;;11.93;92.53
23635;BME280;11994;51.038;16.974;2022-10-03T07:28:30;100226.55;;;12.00;92.36
23635;BME280;11994;51.038;16.974;2022-10-03T07:31:00;100234.30;;;12.04;92.30
23635;BME280;11994;51.038;16.974;2022-10-03T07:49:42;100251.58;;;11.83;93.49
23635;BME280;11994;51.038;16.974;2022-10-03T07:59:06;100264.89;;;11.93;94.28
23635;BME280;11994;51.038;16.974;2022-10-03T08:02:22;100267.25;;;11.87;94.11
23635;BME280;11994;51.038;16.974;2022-10-03T08:11:08;100276.62;;;11.81;94.72
23635;BME280;11994;51.038;16.974;2022-10-03T08:39:26;100297.48;;;12.03;94.82
23635;BME280;11994;51.038;16.974;2022-10-03T08:47:42;100296.36;;;12.12;95.12
23635;BME280;11994;51.038;16.974;2022-10-03T08:50:32;100300.94;;;12.19;95.08
23635;BME280;11994;51.038;16.974;2022-10-03T08:56:05;100302.99;;;12.24;94.80
23635;BME280;11994;51.038;16.974;2022-10-03T09:20:08;100310.31;;;12.58;94.58
23635;BME280;11994;51.038;16.974;2022-10-03T09:40:17;100319.77;;;13.07;92.68
23635;BME280;11994;51.038;16.974;2022-10-03T09:51:57;100321.03;;;12.94;92.02
23635;BME280;11994;51.038;16.974;2022-10-03T10:03:52;100328.97;;;12.93;92.67
23635;BME280;11994;51.038;16.974;2022-10-03T10:13:25;100339.95;;;13.08;92.51
23635;BME280;11994;51.038;16.974;2022-10-03T10:45:43;100334.17;;;13.75;89.28
23635;BME280;11994;51.038;16.974;2022-10-03T10:51:22;100320.05;;;13.65;87.95
23635;BME280;11994;51.038;16.974;2022-10-03T11:06:22;100324.42;;;13.53;87.68
23635;BME280;11994;51.038;16.974;2022-10-03T11:09:26;100329.23;;;13.40;88.00
23635;BME280;11994;51.038;16.974;2022-10-03T11:38:34;100338.25;;;13.33;88.50
23635;BME280;11994;51.038;16.974;2022-10-03T11:41:34;100338.53;;;13.24;88.94
23635;BME280;11994;51.038;16.974;2022-10-03T11:44:16;100343.64;;;13.16;89.37
23635;BME280;11994;51.038;16.974;2022-10-03T11:49:55;100334.92;;;13.01;89.75
23635;BME280;11994;51.038;16.974;2022-10-03T11:58:13;100327.86;;;13.01;90.35
23635;BME280;11994;51.038;16.974;2022-10-03T12:00:39;100331.33;;;13.03;90.39
23635;BME280;11994;51.038;16.974;2022-10-03T12:03:28;100328.73;;;13.02;90.43
23635;BME280;11994;51.038;16.974;2022-10-03T12:05:58;100327.02;;;13.01;90.56
23635;BME280;11994;51.038;16.974;2022-10-03T12:08:35;100326.70;;;12.97;90.49
23635;BME280;11994;51.038;16.974;2022-10-03T12:11:26;100326.81;;;12.92;90.66
23635;BME280;11994;51.038;16.974;2022-10-03T12:14:21;100326.41;;;12.91;90.94
23635;BME280;11994;51.038;16.974;2022-10-03T12:17:05;100333.00;;;12.91;91.20
23635;BME280;11994;51.038;16.974;2022-10-03T12:20:45;100345.73;;;12.90;91.19
23635;BME280;11994;51.038;16.974;2022-10-03T12:22:54;100344.56;;;12.86;91.42
23635;BME280;11994;51.038;16.974;2022-10-03T12:30:59;100383.55;;;12.73;91.89
23635;BME280;11994;51.038;16.974;2022-10-03T12:39:55;100382.17;;;12.46;92.87
23635;BME280;11994;51.038;16.974;2022-10-03T12:45:28;100386.92;;;12.48;93.81
23635;BME280;11994;51.038;16.974;2022-10-03T12:51:13;100382.19;;;12.60;94.29
23635;BME280;11994;51.038;16.974;2022-10-03T12:53:56;100380.22;;;12.68;94.71
23635;BME280;11994;51.038;16.974;2022-10-03T12:56:48;100382.16;;;12.76;94.72
23635;BME280;11994;51.038;16.974;2022-10-03T13:07:49;100375.37;;;13.13;95.01
23635;BME280;11994;51.038;16.974;2022-10-03T13:10:37;100369.18;;;13.14;94.51
23635;BME280;11994;51.038;16.974;2022-10-03T13:16:49;100383.42;;;13.08;93.59
23635;BME280;11994;51.038;16.974;2022-10-03T13:22:40;100385.73;;;13.04;93.48
23635;BME280;11994;51.038;16.974;2022-10-03T13:25:19;100389.28;;;13.03;93.29
23635;BME280;11994;51.038;16.974;2022-10-03T13:30:45;100394.80;;;13.09;92.98
23635;BME280;11994;51.038;16.974;2022-10-03T13:33:21;100389.45;;;13.12;93.09
23635;BME280;11994;51.038;16.974;2022-10-03T13:44:07;100389.55;;;13.22;92.63
23635;BME280;11994;51.038;16.974;2022-10-03T13:46:52;100396.10;;;13.23;92.32
23635;BME280;11994;51.038;16.974;2022-10-03T13:49:31;100385.08;;;13.25;92.24
23635;BME280;11994;51.038;16.974;2022-10-03T13:52:14;100384.16;;;13.26;91.82
23635;BME280;11994;51.038;16.974;2022-10-03T14:00:52;100388.00;;;13.29;91.17
23635;BME280;11994;51.038;16.974;2022-10-03T14:12:10;100381.54;;;13.39;90.84
23635;BME280;11994;51.038;16.974;2022-10-03T14:17:41;100395.80;;;13.47;90.40
23635;BME280;11994;51.038;16.974;2022-10-03T14:23:48;100381.45;;;13.55;89.92
23635;BME280;11994;51.038;16.974;2022-10-03T14:26:01;100388.85;;;13.57;89.35
23635;BME280;11994;51.038;16.974;2022-10-03T14:28:42;100391.41;;;13.60;88.49
23635;BME280;11994;51.038;16.974;2022-10-03T14:37:33;100394.80;;;13.64;88.41
23635;BME280;11994;51.038;16.974;2022-10-03T14:45:37;100394.34;;;13.77;88.00
23635;BME280;11994;51.038;16.974;2022-10-03T14:48:11;100392.87;;;13.82;88.10
23635;BME280;11994;51.038;16.974;2022-10-03T14:50:43;100402.45;;;13.84;88.04
23635;BME280;11994;51.038;16.974;2022-10-03T14:53:18;100394.42;;;13.87;87.86
23635;BME280;11994;51.038;16.974;2022-10-03T14:56:10;100389.02;;;13.92;87.72
23635;BME280;11994;51.038;16.974;2022-10-03T14:58:47;100405.59;;;13.95;87.59
23635;BME280;11994;51.038;16.974;2022-10-03T15:01:24;100406.75;;;14.00;87.45
23635;BME280;11994;51.038;16.974;2022-10-03T15:04:14;100405.39;;;14.01;87.19
23635;BME280;11994;51.038;16.974;2022-10-03T15:06:59;100404.47;;;14.02;86.98
23635;BME280;11994;51.038;16.974;2022-10-03T15:09:42;100401.83;;;14.02;86.90
23635;BME280;11994;51.038;16.974;2022-10-03T15:12:25;100403.10;;;14.04;86.72
23635;BME280;11994;51.038;16.974;2022-10-03T15:14:59;100396.95;;;14.03;86.61
23635;BME280;11994;51.038;16.974;2022-10-03T15:17:31;100408.02;;;14.01;86.32
23635;BME280;11994;51.038;16.974;2022-10-03T15:19:59;100401.12;;;13.97;86.13
23635;BME280;11994;51.038;16.974;2022-10-03T15:22:34;100400.67;;;13.98;85.82
23635;BME280;11994;51.038;16.974;2022-10-03T15:25:14;100404.98;;;14.00;85.37
23635;BME280;11994;51.038;16.974;2022-10-03T15:27:51;100396.45;;;13.92;85.39
23635;BME280;11994;51.038;16.974;2022-10-03T15:30:25;100402.16;;;13.93;85.21
23635;BME280;11994;51.038;16.974;2022-10-03T15:32:54;100402.25;;;13.90;85.22
23635;BME280;11994;51.038;16.974;2022-10-03T15:35:27;100405.89;;;13.86;85.00
23635;BME280;11994;51.038;16.974;2022-10-03T15:38:06;100409.66;;;13.79;84.85
23635;BME280;11994;51.038;16.974;2022-10-03T15:40:31;100408.45;;;13.76;84.89
23635;BME280;11994;51.038;16.974;2022-10-03T15:43:12;100409.34;;;13.75;84.73
23635;BME280;11994;51.038;16.974;2022-10-03T15:45:39;100405.38;;;13.75;84.33
23635;BME280;11994;51.038;16.974;2022-10-03T15:48:09;100413.81;;;13.73;84.37
23635;BME280;11994;51.038;16.974;2022-10-03T15:50:39;100411.17;;;13.73;84.38
23635;BME280;11994;51.038;16.974;2022-10-03T15:53:14;100417.02;;;13.70;84.37
23635;BME280;11994;51.038;16.974;2022-10-03T15:55:46;100414.53;;;13.65;84.31
23635;BME280;11994;51.038;16.974;2022-10-03T15:58:20;100420.81;;;13.61;84.01
23635;BME280;11994;51.038;16.974;2022-10-03T16:01:05;100419.09;;;13.60;84.00
23635;BME280;11994;51.038;16.974;2022-10-03T16:03:45;100420.48;;;13.57;84.17
23635;BME280;11994;51.038;16.974;2022-10-03T16:19:53;100439.20;;;13.35;84.05
23635;BME280;11994;51.038;16.974;2022-10-03T16:25:15;100435.52;;;13.28;84.19
23635;BME280;11994;51.038;16.974;2022-10-03T16:27:51;100448.40;;;13.22;84.19
23635;BME280;11994;51.038;16.974;2022-10-03T16:30:28;100440.23;;;13.17;84.23
23635;BME280;11994;51.038;16.974;2022-10-03T16:33:09;100447.34;;;13.13;84.24
23635;BME280;11994;51.038;16.974;2022-10-03T16:35:35;100440.46;;;13.09;84.27
23635;BME280;11994;51.038;16.974;2022-10-03T16:38:37;100444.97;;;13.06;84.38
23635;BME280;11994;51.038;16.974;2022-10-03T16:41:26;100442.77;;;13.05;84.56
23635;BME280;11994;51.038;16.974;2022-10-03T16:44:04;100440.64;;;13.03;84.60
23635;BME280;11994;51.038;16.974;2022-10-03T16:46:36;100442.00;;;13.02;84.69
23635;BME280;11994;51.038;16.974;2022-10-03T16:49:17;100446.32;;;13.04;84.78
23635;BME280;11994;51.038;16.974;2022-10-03T16:52:13;100444.41;;;13.09;84.82
23635;BME280;11994;51.038;16.974;2022-10-03T16:54:40;100445.55;;;13.15;84.77
23635;BME280;11994;51.038;16.974;2022-10-03T16:57:18;100444.13;;;13.18;84.67
23635;BME280;11994;51.038;16.974;2022-10-03T16:59:47;100445.33;;;13.23;84.72
23635;BME280;11994;51.038;16.974;2022-10-03T17:02:17;100434.78;;;13.23;84.60
23635;BME280;11994;51.038;16.974;2022-10-03T17:04:47;100441.00;;;13.20;84.51
23635;BME280;11994;51.038;16.974;2022-10-03T17:07:27;100434.45;;;13.19;84.48
23635;BME280;11994;51.038;16.974;2022-10-03T17:10:34;100435.33;;;13.19;84.45
23635;BME280;11994;51.038;16.974;2022-10-03T17:13:13;100434.82;;;13.21;84.52
23635;BME280;11994;51.038;16.974;2022-10-03T17:16:08;100436.98;;;13.22;84.50
23635;BME280;11994;51.038;16.974;2022-10-03T17:18:39;100430.88;;;13.21;84.42
23635;BME280;11994;51.038;16.974;2022-10-03T17:21:17;100425.23;;;13.19;84.31
23635;BME280;11994;51.038;16.974;2022-10-03T17:26:42;100437.31;;;13.11;84.31
23635;BME280;11994;51.038;16.974;2022-10-03T17:29:21;100439.19;;;13.08;84.21
23635;BME280;11994;51.038;16.974;2022-10-03T17:32:00;100444.89;;;13.07;84.26
23635;BME280;11994;51.038;16.974;2022-10-03T17:34:37;100452.39;;;13.06;84.24
23635;BME280;11994;51.038;16.974;2022-10-03T17:37:26;100448.14;;;13.02;84.21
23635;BME280;11994;51.038;16.974;2022-10-03T17:42:55;100457.95;;;12.97;84.16
23635;BME280;11994;51.038;16.974;2022-10-03T17:50:34;100451.03;;;12.92;84.25
23635;BME280;11994;51.038;16.974;2022-10-03T17:53:03;100443.61;;;12.91;84.26
23635;BME280;11994;51.038;16.974;2022-10-03T17:55:38;100443.17;;;12.90;84.25
23635;BME280;11994;51.038;16.974;2022-10-03T17:58:14;100437.13;;;12.87;84.25
23635;BME280;11994;51.038;16.974;2022-10-03T18:06:43;100437.45;;;12.76;84.33
23635;BME280;11994;51.038;16.974;2022-10-03T18:09:26;100443.63;;;12.75;84.45
23635;BME280;11994;51.038;16.974;2022-10-03T18:12:01;100440.63;;;12.73;84.54
23635;BME280;11994;51.038;16.974;2022-10-03T18:14:40;100438.00;;;12.73;84.61
23635;BME280;11994;51.038;16.974;2022-10-03T18:17:29;100439.75;;;12.72;84.66
23635;BME280;11994;51.038;16.974;2022-10-03T18:23:05;100441.58;;;12.70;84.79
23635;BME280;11994;51.038;16.974;2022-10-03T18:25:53;100443.27;;;12.73;84.95
23635;BME280;11994;51.038;16.974;2022-10-03T18:31:17;100457.60;;;12.77;85.19
23635;BME280;11994;51.038;16.974;2022-10-03T18:33:57;100460.23;;;12.77;85.22
23635;BME280;11994;51.038;16.974;2022-10-03T18:36:41;100459.77;;;12.79;85.36
23635;BME280;11994;51.038;16.974;2022-10-03T18:39:16;100467.12;;;12.83;85.48
23635;BME280;11994;51.038;16.974;2022-10-03T18:41:49;100457.36;;;12.86;85.62
23635;BME280;11994;51.038;16.974;2022-10-03T18:44:19;100460.36;;;12.89;85.77
23635;BME280;11994;51.038;16.974;2022-10-03T18:46:48;100460.77;;;12.90;85.91
23635;BME280;11994;51.038;16.974;2022-10-03T18:49:24;100453.70;;;12.90;86.02
23635;BME280;11994;51.038;16.974;2022-10-03T18:52:15;100460.25;;;12.92;86.12
23635;BME280;11994;51.038;16.974;2022-10-03T18:54:58;100457.11;;;12.95;86.22
23635;BME280;11994;51.038;16.974;2022-10-03T18:57:35;100455.72;;;12.98;86.33
23635;BME280;11994;51.038;16.974;2022-10-03T19:05:41;100452.09;;;13.02;86.49
23635;BME280;11994;51.038;16.974;2022-10-03T19:08:31;100453.41;;;13.02;86.41
23635;BME280;11994;51.038;16.974;2022-10-03T19:11:18;100450.27;;;13.04;86.38
23635;BME280;11994;51.038;16.974;2022-10-03T19:14:06;100452.50;;;13.03;86.36
23635;BME280;11994;51.038;16.974;2022-10-03T19:19:52;100452.61;;;12.99;86.46
23635;BME280;11994;51.038;16.974;2022-10-03T19:22:27;100448.73;;;12.97;86.45
23635;BME280;11994;51.038;16.974;2022-10-03T19:25:00;100442.14;;;12.97;86.47
23635;BME280;11994;51.038;16.974;2022-10-03T19:27:41;100439.44;;;12.99;86.51
23635;BME280;11994;51.038;16.974;2022-10-03T19:30:11;100443.39;;;12.99;86.49
23635;BME280;11994;51.038;16.974;2022-10-03T19:35:44;100439.91;;;12.98;86.50
23635;BME280;11994;51.038;16.974;2022-10-03T19:38:19;100439.08;;;12.96;86.49
23635;BME280;11994;51.038;16.974;2022-10-03T19:40:57;100441.67;;;12.98;86.42
23635;BME280;11994;51.038;16.974;2022-10-03T19:51:37;100447.23;;;12.87;86.55
23635;BME280;11994;51.038;16.974;2022-10-03T19:54:10;100450.70;;;12.88;86.75
23635;BME280;11994;51.038;16.974;2022-10-03T19:56:38;100461.13;;;12.92;86.92
23635;BME280;11994;51.038;16.974;2022-10-03T19:59:15;100458.91;;;12.93;86.97
23635;BME280;11994;51.038;16.974;2022-10-03T20:01:43;100458.91;;;12.93;87.07
23635;BME280;11994;51.038;16.974;2022-10-03T20:04:11;100459.84;;;12.91;87.17
23635;BME280;11994;51.038;16.974;2022-10-03T20:06:41;100458.16;;;12.88;87.30
23635;BME280;11994;51.038;16.974;2022-10-03T20:09:27;100466.50;;;12.88;87.43
23635;BME280;11994;51.038;16.974;2022-10-03T20:12:00;100450.37;;;12.85;87.65
23635;BME280;11994;51.038;16.974;2022-10-03T20:14:36;100457.83;;;12.84;87.75
23635;BME280;11994;51.038;16.974;2022-10-03T20:17:09;100459.77;;;12.79;87.93
23635;BME280;11994;51.038;16.974;2022-10-03T20:20:21;100446.23;;;12.77;88.21
23635;BME280;11994;51.038;16.974;2022-10-03T20:22:20;100453.21;;;12.78;88.29
23635;BME280;11994;51.038;16.974;2022-10-03T20:24:49;100449.34;;;12.75;88.35
23635;BME280;11994;51.038;16.974;2022-10-03T20:30:03;100451.13;;;12.74;88.44
23635;BME280;11994;51.038;16.974;2022-10-03T20:32:31;100451.67;;;12.71;88.49
23635;BME280;11994;51.038;16.974;2022-10-03T20:34:59;100448.97;;;12.72;88.48
23635;BME280;11994;51.038;16.974;2022-10-03T20:40:19;100444.17;;;12.72;88.53
23635;BME280;11994;51.038;16.974;2022-10-03T20:42:47;100448.56;;;12.71;88.53
23635;BME280;11994;51.038;16.974;2022-10-03T20:45:21;100451.30;;;12.68;88.57
23635;BME280;11994;51.038;16.974;2022-10-03T20:48:00;100449.06;;;12.69;88.46
23635;BME280;11994;51.038;16.974;2022-10-03T20:50:38;100449.06;;;12.69;88.42
23635;BME280;11994;51.038;16.974;2022-10-03T20:56:08;100452.69;;;12.65;88.27
23635;BME280;11994;51.038;16.974;2022-10-03T20:58:47;100446.20;;;12.62;88.23
23635;BME280;11994;51.038;16.974;2022-10-03T21:01:24;100445.73;;;12.63;88.24
23635;BME280;11994;51.038;16.974;2022-10-03T21:07:02;100455.42;;;12.62;88.41
23635;BME280;11994;51.038;16.974;2022-10-03T21:09:56;100452.82;;;12.61;88.40
23635;BME280;11994;51.038;16.974;2022-10-03T21:12:26;100460.69;;;12.62;88.46
23635;BME280;11994;51.038;16.974;2022-10-03T21:15:05;100464.97;;;12.65;88.48
23635;BME280;11994;51.038;16.974;2022-10-03T21:17:34;100456.56;;;12.68;88.54
23635;BME280;11994;51.038;16.974;2022-10-03T21:20:11;100458.32;;;12.68;88.60
23635;BME280;11994;51.038;16.974;2022-10-03T21:22:40;100464.02;;;12.67;88.64
23635;BME280;11994;51.038;16.974;2022-10-03T21:25:16;100467.53;;;12.68;88.67
23635;BME280;11994;51.038;16.974;2022-10-03T21:27:49;100464.87;;;12.69;88.69
23635;BME280;11994;51.038;16.974;2022-10-03T21:30:21;100470.94;;;12.71;88.80
23635;BME280;11994;51.038;16.974;2022-10-03T21:35:35;100464.83;;;12.71;88.82
23635;BME280;11994;51.038;16.974;2022-10-03T21:38:25;100469.22;;;12.70;88.79
23635;BME280;11994;51.038;16.974;2022-10-03T21:41:30;100463.92;;;12.72;88.63
23635;BME280;11994;51.038;16.974;2022-10-03T21:44:23;100463.98;;;12.69;88.45
23635;BME280;11994;51.038;16.974;2022-10-03T21:47:52;100462.30;;;12.66;88.31
23635;BME280;11994;51.038;16.974;2022-10-03T21:50:02;100461.53;;;12.63;88.21
23635;BME280;11994;51.038;16.974;2022-10-03T22:04:03;100457.98;;;12.48;88.49
23635;BME280;11994;51.038;16.974;2022-10-03T22:06:38;100456.67;;;12.48;88.62
23635;BME280;11994;51.038;16.974;2022-10-03T22:09:24;100452.31;;;12.47;88.70
23635;BME280;11994;51.038;16.974;2022-10-03T22:11:56;100448.73;;;12.49;88.92
23635;BME280;11994;51.038;16.974;2022-10-03T22:17:49;100447.36;;;12.52;89.10
23635;BME280;11994;51.038;16.974;2022-10-03T22:20:29;100434.97;;;12.56;89.20
23635;BME280;11994;51.038;16.974;2022-10-03T22:26:20;100449.72;;;12.61;89.21
23635;BME280;11994;51.038;16.974;2022-10-03T22:29:09;100447.96;;;12.62;89.29
23635;BME280;11994;51.038;16.974;2022-10-03T22:31:51;100445.88;;;12.58;89.19
23635;BME280;11994;51.038;16.974;2022-10-03T22:34:37;100443.23;;;12.58;89.15
23635;BME280;11994;51.038;16.974;2022-10-03T22:37:05;100441.89;;;12.60;89.14
23635;BME280;11994;51.038;16.974;2022-10-03T22:39:34;100441.41;;;12.60;89.21
23635;BME280;11994;51.038;16.974;2022-10-03T22:42:01;100433.89;;;12.63;89.23
23635;BME280;11994;51.038;16.974;2022-10-03T22:44:33;100443.06;;;12.64;89.21
23635;BME280;11994;51.038;16.974;2022-10-03T22:47:06;100444.38;;;12.64;89.22
23635;BME280;11994;51.038;16.974;2022-10-03T22:49:37;100440.44;;;12.64;89.14
23635;BME280;11994;51.038;16.974;2022-10-03T22:52:07;100439.48;;;12.67;89.04
23635;BME280;11994;51.038;16.974;2022-10-03T22:54:40;100437.70;;;12.67;89.03
23635;BME280;11994;51.038;16.974;2022-10-03T22:57:11;100429.91;;;12.64;88.92
23635;BME280;11994;51.038;16.974;2022-10-03T22:59:50;100434.77;;;12.63;88.86
23635;BME280;11994;51.038;16.974;2022-10-03T23:02:32;100446.23;;;12.61;88.84
23635;BME280;11994;51.038;16.974;2022-10-03T23:05:13;100449.34;;;12.59;88.92
23635;BME280;11994;51.038;16.974;2022-10-03T23:08:43;100442.83;;;12.57;88.92
23635;BME280;11994;51.038;16.974;2022-10-03T23:10:54;100442.83;;;12.57;89.06
23635;BME280;11994;51.038;16.974;2022-10-03T23:13:39;100442.36;;;12.58;89.26
23635;BME280;11994;51.038;16.974;2022-10-03T23:21:58;100445.33;;;12.62;89.43
23635;BME280;11994;51.038;16.974;2022-10-03T23:24:31;100444.82;;;12.64;89.43
23635;BME280;11994;51.038;16.974;2022-10-03T23:37:59;100439.82;;;12.71;89.45
23635;BME280;11994;51.038;16.974;2022-10-03T23:40:44;100448.53;;;12.73;89.48
23635;BME280;11994;51.038;16.974;2022-10-03T23:43:29;100450.69;;;12.73;89.49
23635;BME280;11994;51.038;16.974;2022-10-03T23:46:17;100447.65;;;12.72;89.49
23635;BME280;11994;51.038;16.974;2022-10-03T23:48:56;100446.34;;;12.72;89.50
23635;BME280;11994;51.038;16.974;2022-10-03T23:51:34;100448.49;;;12.74;89.52
23635;BME280;11994;51.038;16.974;2022-10-03T23:54:03;100441.91;;;12.74;89.57
23635;BME280;11994;51.038;16.974;2022-10-03T23:56:37;100445.75;;;12.77;89.61
